createdAt,value
2022-10-06T14:35:14.560Z,19.23
2022-10-06T14:37:42.610Z,19.20
2022-10-06T14:40:12.240Z,19.19
2022-10-06T14:42:40.597Z,19.07
2022-10-06T14:45:09.118Z,18.60
2022-10-06T14:47:38.405Z,19.16
2022-10-06T14:50:07.551Z,19.22
2022-10-06T14:52:36.202Z,18.83
2022-10-06T14:55:05.223Z,19.03
2022-10-06T14:57:34.642Z,18.39
2022-10-06T15:00:03.549Z,18.88
2022-10-06T15:02:31.666Z,18.38
2022-10-06T15:04:59.793Z,18.57
2022-10-06T15:07:46.510Z,18.56
2022-10-06T15:10:14.783Z,18.59
2022-10-06T15:12:42.821Z,18.54
2022-10-06T15:15:11.110Z,18.29
2022-10-06T15:17:39.512Z,18.36
2022-10-06T15:20:08.510Z,18.31
2022-10-06T15:22:36.437Z,18.23
2022-10-06T15:25:05.766Z,17.75
2022-10-06T15:27:52.468Z,17.97
2022-10-06T15:30:21.335Z,18.17
2022-10-06T15:32:49.845Z,17.90
2022-10-06T15:35:17.744Z,18.02
2022-10-06T15:37:46.076Z,17.92
2022-10-06T15:40:14.454Z,17.91
2022-10-06T15:42:42.387Z,17.86
2022-10-06T15:45:10.936Z,17.71
2022-10-06T15:47:38.828Z,17.41
2022-10-06T15:50:07.198Z,17.39
2022-10-06T15:52:35.617Z,17.32
2022-10-06T15:55:03.825Z,17.21
2022-10-06T15:57:31.776Z,17.11
2022-10-06T16:00:03.097Z,17.05
2022-10-06T16:02:40.395Z,17.02
2022-10-06T16:05:09.002Z,16.92
2022-10-06T16:07:36.892Z,16.99
2022-10-06T16:10:05.339Z,16.67
2022-10-06T16:12:33.753Z,16.86
2022-10-06T16:15:01.581Z,16.46
2022-10-06T16:17:29.429Z,16.61
2022-10-06T16:19:57.926Z,16.53
2022-10-06T16:22:25.739Z,16.43
2022-10-06T16:24:53.631Z,16.38
2022-10-06T16:27:21.960Z,16.38
2022-10-06T16:29:49.842Z,16.38
2022-10-06T16:32:17.669Z,16.46
2022-10-06T16:34:50.552Z,16.54
2022-10-06T16:37:18.474Z,16.59
2022-10-06T16:39:47.540Z,16.66
2022-10-06T16:42:15.675Z,16.67
2022-10-06T16:44:43.523Z,16.86
2022-10-06T16:47:11.590Z,16.86
2022-10-06T16:49:39.706Z,16.84
2022-10-06T16:52:07.681Z,16.82
2022-10-06T16:54:35.886Z,16.84
2022-10-06T16:57:06.918Z,16.77
2022-10-06T16:59:35.012Z,16.72
2022-10-06T17:02:03.176Z,16.50
2022-10-06T17:04:31.274Z,16.64
2022-10-06T17:06:59.374Z,16.64
2022-10-06T17:09:29.849Z,16.52
2022-10-06T17:12:03.400Z,16.47
2022-10-06T17:14:33.352Z,16.42
2022-10-06T17:17:01.638Z,16.20
2022-10-06T17:19:31.145Z,16.44
2022-10-06T17:22:00.090Z,16.26
2022-10-06T17:24:29.783Z,16.32
2022-10-06T17:26:59.229Z,16.26
2022-10-06T17:29:27.518Z,16.26
2022-10-06T17:32:00.243Z,16.16
2022-10-06T17:34:33.483Z,15.62
2022-10-06T17:37:02.586Z,15.93
2022-10-06T17:39:31.412Z,15.98
2022-10-06T17:41:59.962Z,15.63
2022-10-06T17:44:29.429Z,15.79
2022-10-06T17:47:00.805Z,15.69
2022-10-06T17:49:32.930Z,15.60
2022-10-06T17:52:01.529Z,15.48
2022-10-06T17:54:32.072Z,15.40
2022-10-06T17:57:00.416Z,15.54
2022-10-06T17:59:31.543Z,15.27
2022-10-06T18:02:07.310Z,15.39
2022-10-06T18:04:39.000Z,15.20
2022-10-06T18:07:08.651Z,15.05
2022-10-06T18:09:36.589Z,14.93
2022-10-06T18:12:05.116Z,15.00
2022-10-06T18:14:33.761Z,14.98
2022-10-06T18:17:04.071Z,14.80
2022-10-06T18:19:35.102Z,14.62
2022-10-06T18:22:11.763Z,14.41
2022-10-06T18:24:40.748Z,14.57
2022-10-06T18:27:09.205Z,14.34
2022-10-06T18:29:38.792Z,14.42
2022-10-06T18:37:44.582Z,14.26
2022-10-06T18:40:14.991Z,14.16
2022-10-06T18:42:43.188Z,14.05
2022-10-06T18:45:33.211Z,13.81
2022-10-06T18:48:22.325Z,13.83
2022-10-06T18:51:01.153Z,13.76
2022-10-06T18:53:32.721Z,13.67
2022-10-06T18:56:01.107Z,13.43
2022-10-06T18:58:30.159Z,13.54
2022-10-06T19:01:03.724Z,13.38
2022-10-06T19:03:32.163Z,13.26
2022-10-06T19:06:00.341Z,13.37
2022-10-06T19:08:28.397Z,13.26
2022-10-06T19:11:17.428Z,13.18
2022-10-06T19:13:49.576Z,13.17
2022-10-06T19:16:18.680Z,12.84
2022-10-06T19:18:47.426Z,13.16
2022-10-06T19:21:15.583Z,13.05
2022-10-06T19:23:44.156Z,12.62
2022-10-06T19:26:13.261Z,12.32
2022-10-06T19:28:41.602Z,12.46
2022-10-06T19:31:20.224Z,12.15
2022-10-06T19:33:49.177Z,11.96
2022-10-06T19:36:17.750Z,12.00
2022-10-06T19:38:45.870Z,11.86
2022-10-06T19:41:33.422Z,11.54
2022-10-06T19:44:04.188Z,11.20
2022-10-06T19:46:32.125Z,11.58
2022-10-06T19:49:05.872Z,11.56
2022-10-06T19:51:35.192Z,11.37
2022-10-06T19:54:04.861Z,11.41
2022-10-06T19:56:33.519Z,11.07
2022-10-06T19:59:03.542Z,11.00
2022-10-06T20:01:32.582Z,11.05
2022-10-06T20:04:04.079Z,11.14
2022-10-06T20:06:35.995Z,10.74
2022-10-06T20:09:09.536Z,10.56
2022-10-06T20:11:41.608Z,10.45
2022-10-06T20:14:20.567Z,10.50
2022-10-06T20:16:51.964Z,10.69
2022-10-06T20:19:33.533Z,10.72
2022-10-06T20:22:06.894Z,10.68
2022-10-06T20:24:35.433Z,10.41
2022-10-06T20:27:03.389Z,10.73
2022-10-06T20:29:31.972Z,10.58
2022-10-06T20:32:00.285Z,10.60
2022-10-06T20:34:33.238Z,10.35
2022-10-06T20:37:03.614Z,10.47
2022-10-06T20:39:52.588Z,10.45
2022-10-06T20:42:21.805Z,10.12
2022-10-06T20:44:50.085Z,10.11
2022-10-06T20:47:18.498Z,10.26
2022-10-06T20:49:46.803Z,10.22
2022-10-06T20:52:15.075Z,10.11
2022-10-06T20:54:43.415Z,10.09
2022-10-06T20:57:12.579Z,10.04
2022-10-06T20:59:40.766Z,9.94
2022-10-06T21:02:11.205Z,9.91
2022-10-06T21:04:43.807Z,9.81
2022-10-06T21:07:12.750Z,9.75
2022-10-06T21:09:41.240Z,9.42
2022-10-06T21:12:09.521Z,9.54
2022-10-06T21:14:38.077Z,9.40
2022-10-06T21:17:06.015Z,9.35
2022-10-06T21:19:38.222Z,9.23
2022-10-06T21:22:07.006Z,9.28
2022-10-06T21:24:35.049Z,9.26
2022-10-06T21:27:03.390Z,9.29
2022-10-06T21:29:31.658Z,9.39
2022-10-06T21:31:59.823Z,9.14
2022-10-06T21:34:28.104Z,9.41
2022-10-06T21:36:56.505Z,9.38
2022-10-06T21:39:24.466Z,9.21
2022-10-06T21:41:52.438Z,9.09
2022-10-06T21:44:20.606Z,8.97
2022-10-06T21:46:54.901Z,9.01
2022-10-06T21:49:24.860Z,9.03
2022-10-06T21:51:55.566Z,8.98
2022-10-06T21:54:24.274Z,8.96
2022-10-06T21:56:52.715Z,8.74
2022-10-06T21:59:21.062Z,8.99
2022-10-06T22:01:52.206Z,8.98
2022-10-06T22:04:20.178Z,8.84
2022-10-06T22:06:52.043Z,8.69
2022-10-06T22:09:21.010Z,8.56
2022-10-06T22:11:50.034Z,8.60
2022-10-06T22:14:20.379Z,8.49
2022-10-06T22:16:48.996Z,8.60
2022-10-06T22:19:18.237Z,8.66
2022-10-06T22:21:49.013Z,8.86
2022-10-06T22:24:20.376Z,8.84
2022-10-06T22:27:01.434Z,8.73
2022-10-06T22:29:29.547Z,8.58
2022-10-06T22:31:58.764Z,8.51
2022-10-06T22:34:27.597Z,8.41
2022-10-06T22:36:55.706Z,8.27
2022-10-06T22:39:23.509Z,8.38
2022-10-06T22:41:51.603Z,8.12
2022-10-06T22:44:20.292Z,8.18
2022-10-06T22:46:48.347Z,8.30
2022-10-06T22:49:16.399Z,7.71
2022-10-06T22:51:44.658Z,8.06
2022-10-06T22:54:18.909Z,8.00
2022-10-06T22:56:47.042Z,8.12
2022-10-06T22:59:15.338Z,7.95
2022-10-06T23:01:43.325Z,8.07
2022-10-06T23:04:11.548Z,7.75
2022-10-06T23:06:39.427Z,7.77
2022-10-06T23:09:07.728Z,7.73
2022-10-06T23:11:36.155Z,7.73
2022-10-06T23:14:03.998Z,7.96
2022-10-06T23:16:31.886Z,7.66
2022-10-06T23:19:01.042Z,7.83
2022-10-06T23:21:28.923Z,7.40
2022-10-06T23:24:00.151Z,7.43
2022-10-06T23:26:28.511Z,6.88
2022-10-06T23:29:01.339Z,7.27
2022-10-06T23:31:30.114Z,7.17
2022-10-06T23:33:58.591Z,7.02
2022-10-06T23:36:26.506Z,7.09
2022-10-06T23:38:54.719Z,7.05
2022-10-06T23:41:23.022Z,6.98
2022-10-06T23:43:51.170Z,6.92
2022-10-06T23:46:19.211Z,6.96
2022-10-06T23:48:48.508Z,6.93
2022-10-06T23:51:17.086Z,6.85
2022-10-06T23:53:45.771Z,6.58
2022-10-06T23:56:14.501Z,6.64
2022-10-06T23:58:42.899Z,6.74
